Allensville, Pennsylvania
Current Conditions -  °F | °C
As of 12:35 AM on Saturday 25 Oct 2014 (Local Time) from KUNV Reporting Station
Clear Clear  
Wind Chill: 45°   Ceiling: Unl
Heat Index: 48°   Visibility: 10mi
Dew Point: 37°   Wind: 7mph
Humidity: 67%   Direction: 230°SW
Pressure: 29.97"   Gusts: NA
Location:  40.54°N, 77.82°W
Report Text: KUNV 250435Z AUTO 23006KT 10SM CLR 09/03 A2997 RMK AO2 T00880030
Loading
Personal Weather Stations






























Interactive Weather Map New forecast layout! Learn more

10-Day Weather Forecast

Advertisements
Track Severe Weather on mobile